KBFD/BFD METAR and TAF weather

Enter ICAO airport designator
Station Type Date Time Source
KBFD METAR 2018/01/19 22:53 UTC NOAA

KBFD 192253Z AUTO 20007KT 180V240 10SM CLR 00/M08 A2989 RMK AO2 SLP145 T00001078


Station Type Date Time Source
KBFD Decoded METAR 2018/01/19 22:53 UTC NOAA

BRADFORD REGIONAL AIRPORT, PA, United States (KBFD) 41-48N 078-38W 647M
Jan 19, 2018 - 05:53 PM EST / 2018.01.19 2253 UTC
Wind: from the SSW (200 degrees) at 8 MPH (7 KT) (direction variable):0
Visibility: 10 mile(s):0
Sky conditions: clear
Temperature: 32.0 F (0.0 C)
Windchill: 24 F (-4 C):1
Dew Point: 18.0 F (-7.8 C)
Relative Humidity: 55%
Pressure (altimeter): 29.89 in. Hg (1012 hPa)
ob: KBFD 192253Z AUTO 20007KT 180V240 10SM CLR 00/M08 A2989 RMK AO2 SLP145 T00001078
cycle: 23

Station Type Date Time Source
KBFD TAF 2018/01/19 22:24 UTC NOAA

TAF
AMD KBFD 192221Z 1922/2018 24010G19KT P6SM SCT250
FM200000 23010G18KT P6SM SCT250
FM201500 26014G21KT P6SM OVC100


Example: see airport list